Time;durP1;ratioP1;P1;durP2;ratioP2;P2;SDS_P1;SDS_P2;PMS_P1;PMS_P2;Temp;Humidity;BMP_temperature;BMP_pressure;BME280_temperature;BME280_humidity;BME280_pressure;Samples;Min_cycle;Max_cycle;Signal;HPM_P1;HPM_P2
2022/03/23 00:00:46;;;;;;;5.949999;4.599999;;;;;;;0.42;35.79004;96295.04;;;;
2022/03/23 00:01:46;;;;;;;5.949999;4.599999;;;;;;;0.42;35.79004;96295.04;;;;
2022/03/23 00:02:47;;;;;;;5.949999;4.599999;;;;;;;0.42;35.79004;96295.04;;;;
2022/03/23 00:03:47;;;;;;;5.949999;4.599999;;;;;;;0.42;35.79004;96295.04;;;;
2022/03/23 00:04:48;;;;;;;5.949999;4.599999;;;;;;;0.42;35.79004;96295.04;;;;
2022/03/23 00:05:49;;;;;;;5.949999;4.599999;;;;;;;0.42;35.79004;96295.04;;;;
2022/03/23 00:06:49;;;;;;;5.949999;4.599999;;;;;;;0.42;35.79004;96295.04;;;;
2022/03/23 00:07:50;;;;;;;5.949999;4.599999;;;;;;;0.42;35.79004;96295.04;;;;
2022/03/23 00:08:50;;;;;;;7.3;5.400001;;;;;;;0.24;36.07129;96292.42;;;;
2022/03/23 00:09:51;;;;;;;7.3;5.400001;;;;;;;0.24;36.07129;96292.42;;;;
2022/03/23 00:10:52;;;;;;;7.3;5.400001;;;;;;;0.24;36.07129;96292.42;;;;
2022/03/23 00:11:52;;;;;;;7.3;5.400001;;;;;;;0.24;36.07129;96292.42;;;;
2022/03/23 00:12:57;;;;;;;7.3;5.400001;;;;;;;0.24;36.07129;96292.42;;;;
2022/03/23 00:13:57;;;;;;;7.3;5.400001;;;;;;;0.24;36.07129;96292.42;;;;
2022/03/23 00:14:57;;;;;;;7.3;5.400001;;;;;;;0.24;36.07129;96292.42;;;;
2022/03/23 00:15:58;;;;;;;7.3;5.400001;;;;;;;0.24;36.07129;96292.42;;;;
2022/03/23 00:16:59;;;;;;;7.3;5.400001;;;;;;;0.24;36.07129;96292.42;;;;
2022/03/23 00:18:00;;;;;;;7.3;5.400001;;;;;;;0.24;36.07129;96292.42;;;;
2022/03/23 00:19:00;;;;;;;6.799999;5.15;;;;;;;0.16;37.44727;96287.03;;;;
2022/03/23 00:20:01;;;;;;;6.799999;5.15;;;;;;;0.16;37.44727;96287.03;;;;
2022/03/23 00:21:01;;;;;;;6.799999;5.15;;;;;;;0.16;37.44727;96287.03;;;;
2022/03/23 00:22:03;;;;;;;6.799999;5.15;;;;;;;0.16;37.44727;96287.03;;;;
2022/03/23 00:23:03;;;;;;;6.799999;5.15;;;;;;;0.16;37.44727;96287.03;;;;
2022/03/23 00:24:04;;;;;;;6.799999;5.15;;;;;;;0.16;37.44727;96287.03;;;;
2022/03/23 00:25:06;;;;;;;6.799999;5.15;;;;;;;0.16;37.44727;96287.03;;;;
2022/03/23 00:26:08;;;;;;;6.799999;5.15;;;;;;;0.16;37.44727;96287.03;;;;
2022/03/23 00:27:09;;;;;;;6.799999;5.15;;;;;;;0.16;37.44727;96287.03;;;;
2022/03/23 00:28:09;;;;;;;6.799999;5.15;;;;;;;0.16;37.44727;96287.03;;;;
2022/03/23 00:29:10;;;;;;;6.799999;5.15;;;;;;;0.16;37.44727;96287.03;;;;
2022/03/23 00:30:10;;;;;;;7.4;5.799999;;;;;;;0.06;38.46289;96284;;;;
2022/03/23 00:31:12;;;;;;;7.4;5.799999;;;;;;;0.06;38.46289;96284;;;;
2022/03/23 00:32:14;;;;;;;7.4;5.799999;;;;;;;0.06;38.46289;96284;;;;
2022/03/23 00:33:14;;;;;;;7.4;5.799999;;;;;;;0.06;38.46289;96284;;;;
2022/03/23 00:34:15;;;;;;;7.4;5.799999;;;;;;;0.06;38.46289;96284;;;;
2022/03/23 00:35:16;;;;;;;7.4;5.799999;;;;;;;0.06;38.46289;96284;;;;
2022/03/23 00:36:17;;;;;;;7.4;5.799999;;;;;;;0.06;38.46289;96284;;;;
2022/03/23 00:37:18;;;;;;;7.4;5.799999;;;;;;;0.06;38.46289;96284;;;;
2022/03/23 00:38:18;;;;;;;7.4;5.799999;;;;;;;0.06;38.46289;96284;;;;
2022/03/23 00:39:22;;;;;;;7.4;5.799999;;;;;;;0.06;38.46289;96284;;;;
2022/03/23 00:40:22;;;;;;;7.4;5.8;;;;;;;-0.14;39.3623;96288.98;;;;
2022/03/23 00:41:23;;;;;;;7.4;5.8;;;;;;;-0.14;39.3623;96288.98;;;;
2022/03/23 00:42:23;;;;;;;7.4;5.8;;;;;;;-0.14;39.3623;96288.98;;;;
2022/03/23 00:43:24;;;;;;;7.4;5.8;;;;;;;-0.14;39.3623;96288.98;;;;
2022/03/23 00:44:24;;;;;;;7.4;5.8;;;;;;;-0.14;39.3623;96288.98;;;;
2022/03/23 00:45:25;;;;;;;7.4;5.8;;;;;;;-0.14;39.3623;96288.98;;;;
2022/03/23 00:46:25;;;;;;;7.4;5.8;;;;;;;-0.14;39.3623;96288.98;;;;
2022/03/23 00:47:26;;;;;;;7.4;5.8;;;;;;;-0.14;39.3623;96288.98;;;;
2022/03/23 00:48:26;;;;;;;7.4;5.8;;;;;;;-0.14;39.3623;96288.98;;;;
2022/03/23 00:49:27;;;;;;;7.4;5.8;;;;;;;-0.14;39.3623;96288.98;;;;
2022/03/23 00:50:28;;;;;;;7.4;5.8;;;;;;;-0.14;39.3623;96288.98;;;;
2022/03/23 00:51:28;;;;;;;6.299999;5.5;;;;;;;-0.28;40.18164;96285.49;;;;
2022/03/23 00:52:29;;;;;;;6.299999;5.5;;;;;;;-0.28;40.18164;96285.49;;;;
2022/03/23 00:53:30;;;;;;;6.299999;5.5;;;;;;;-0.28;40.18164;96285.49;;;;
2022/03/23 00:54:30;;;;;;;6.299999;5.5;;;;;;;-0.28;40.18164;96285.49;;;;
2022/03/23 00:55:31;;;;;;;6.299999;5.5;;;;;;;-0.28;40.18164;96285.49;;;;
2022/03/23 00:56:32;;;;;;;6.299999;5.5;;;;;;;-0.28;40.18164;96285.49;;;;
2022/03/23 00:57:32;;;;;;;6.299999;5.5;;;;;;;-0.28;40.18164;96285.49;;;;
2022/03/23 00:58:33;;;;;;;6.299999;5.5;;;;;;;-0.28;40.18164;96285.49;;;;
2022/03/23 00:59:33;;;;;;;6.299999;5.5;;;;;;;-0.28;40.18164;96285.49;;;;
2022/03/23 01:00:34;;;;;;;6.299999;5.5;;;;;;;-0.28;40.18164;96285.49;;;;
2022/03/23 01:01:35;;;;;;;7.8;6.2;;;;;;;-0.38;40.79395;96270.07;;;;
2022/03/23 01:02:36;;;;;;;7.8;6.2;;;;;;;-0.38;40.79395;96270.07;;;;
2022/03/23 01:03:36;;;;;;;7.8;6.2;;;;;;;-0.38;40.79395;96270.07;;;;
2022/03/23 01:04:37;;;;;;;7.8;6.2;;;;;;;-0.38;40.79395;96270.07;;;;
2022/03/23 01:05:37;;;;;;;7.8;6.2;;;;;;;-0.38;40.79395;96270.07;;;;
2022/03/23 01:06:39;;;;;;;7.8;6.2;;;;;;;-0.38;40.79395;96270.07;;;;
2022/03/23 01:07:39;;;;;;;7.8;6.2;;;;;;;-0.38;40.79395;96270.07;;;;
2022/03/23 01:08:41;;;;;;;7.8;6.2;;;;;;;-0.38;40.79395;96270.07;;;;
2022/03/23 01:09:41;;;;;;;7.8;6.2;;;;;;;-0.38;40.79395;96270.07;;;;
2022/03/23 01:10:42;;;;;;;7.8;6.2;;;;;;;-0.38;40.79395;96270.07;;;;
2022/03/23 01:11:44;;;;;;;7.8;6.2;;;;;;;-0.38;40.79395;96270.07;;;;
2022/03/23 01:12:44;;;;;;;7.75;6;;;;;;;-0.42;41.4209;96278.49;;;;
2022/03/23 01:13:46;;;;;;;7.75;6;;;;;;;-0.42;41.4209;96278.49;;;;
2022/03/23 01:14:47;;;;;;;7.75;6;;;;;;;-0.42;41.4209;96278.49;;;;
2022/03/23 01:15:48;;;;;;;7.75;6;;;;;;;-0.42;41.4209;96278.49;;;;
2022/03/23 01:16:49;;;;;;;7.75;6;;;;;;;-0.42;41.4209;96278.49;;;;
2022/03/23 01:17:50;;;;;;;7.75;6;;;;;;;-0.42;41.4209;96278.49;;;;
2022/03/23 01:18:51;;;;;;;7.75;6;;;;;;;-0.42;41.4209;96278.49;;;;
2022/03/23 01:19:51;;;;;;;7.75;6;;;;;;;-0.42;41.4209;96278.49;;;;
2022/03/23 01:20:52;;;;;;;7.75;6;;;;;;;-0.42;41.4209;96278.49;;;;
2022/03/23 01:21:53;;;;;;;7.75;6;;;;;;;-0.42;41.4209;96278.49;;;;
2022/03/23 01:22:54;;;;;;;7.549999;6.249999;;;;;;;-0.52;42.01172;96273.61;;;;
2022/03/23 01:23:55;;;;;;;7.549999;6.249999;;;;;;;-0.52;42.01172;96273.61;;;;
2022/03/23 01:24:55;;;;;;;7.549999;6.249999;;;;;;;-0.52;42.01172;96273.61;;;;
2022/03/23 01:25:56;;;;;;;7.549999;6.249999;;;;;;;-0.52;42.01172;96273.61;;;;
2022/03/23 01:26:56;;;;;;;7.549999;6.249999;;;;;;;-0.52;42.01172;96273.61;;;;
2022/03/23 01:27:57;;;;;;;7.549999;6.249999;;;;;;;-0.52;42.01172;96273.61;;;;
2022/03/23 01:28:57;;;;;;;7.549999;6.249999;;;;;;;-0.52;42.01172;96273.61;;;;
2022/03/23 01:29:58;;;;;;;7.549999;6.249999;;;;;;;-0.52;42.01172;96273.61;;;;
2022/03/23 01:30:59;;;;;;;7.549999;6.249999;;;;;;;-0.52;42.01172;96273.61;;;;
2022/03/23 01:32:00;;;;;;;7.549999;6.249999;;;;;;;-0.52;42.01172;96273.61;;;;
2022/03/23 01:33:00;;;;;;;7.549999;6.249999;;;;;;;-0.52;42.01172;96273.61;;;;
2022/03/23 01:34:02;;;;;;;8.55;6.400001;;;;;;;-0.6;42.67773;96269.54;;;;
2022/03/23 01:35:02;;;;;;;8.55;6.400001;;;;;;;-0.6;42.67773;96269.54;;;;
2022/03/23 01:36:04;;;;;;;8.55;6.400001;;;;;;;-0.6;42.67773;96269.54;;;;
2022/03/23 01:37:05;;;;;;;8.55;6.400001;;;;;;;-0.6;42.67773;96269.54;;;;
2022/03/23 01:38:06;;;;;;;8.55;6.400001;;;;;;;-0.6;42.67773;96269.54;;;;
2022/03/23 01:39:07;;;;;;;8.55;6.400001;;;;;;;-0.6;42.67773;96269.54;;;;
2022/03/23 01:40:07;;;;;;;8.55;6.400001;;;;;;;-0.6;42.67773;96269.54;;;;
2022/03/23 01:41:11;;;;;;;8.55;6.400001;;;;;;;-0.6;42.67773;96269.54;;;;
2022/03/23 01:42:11;;;;;;;8.55;6.400001;;;;;;;-0.6;42.67773;96269.54;;;;
2022/03/23 01:43:12;;;;;;;8.55;6.400001;;;;;;;-0.6;42.67773;96269.54;;;;
2022/03/23 01:44:13;;;;;;;7.05;6.250001;;;;;;;-0.67;43.1543;96264.95;;;;
2022/03/23 01:45:15;;;;;;;7.05;6.250001;;;;;;;-0.67;43.1543;96264.95;;;;
2022/03/23 01:46:16;;;;;;;7.05;6.250001;;;;;;;-0.67;43.1543;96264.95;;;;
2022/03/23 01:47:17;;;;;;;7.05;6.250001;;;;;;;-0.67;43.1543;96264.95;;;;
2022/03/23 01:48:18;;;;;;;7.05;6.250001;;;;;;;-0.67;43.1543;96264.95;;;;
2022/03/23 01:49:19;;;;;;;7.05;6.250001;;;;;;;-0.67;43.1543;96264.95;;;;
2022/03/23 01:50:19;;;;;;;7.05;6.250001;;;;;;;-0.67;43.1543;96264.95;;;;
2022/03/23 01:51:20;;;;;;;7.05;6.250001;;;;;;;-0.67;43.1543;96264.95;;;;
2022/03/23 01:52:20;;;;;;;7.05;6.250001;;;;;;;-0.67;43.1543;96264.95;;;;
2022/03/23 01:53:22;;;;;;;7.05;6.250001;;;;;;;-0.67;43.1543;96264.95;;;;
2022/03/23 01:54:23;;;;;;;7.05;6.250001;;;;;;;-0.67;43.1543;96264.95;;;;
2022/03/23 01:55:24;;;;;;;8.749998;6.900001;;;;;;;-0.73;43.65234;96262.44;;;;
2022/03/23 01:56:26;;;;;;;8.749998;6.900001;;;;;;;-0.73;43.65234;96262.44;;;;
2022/03/23 01:57:26;;;;;;;8.749998;6.900001;;;;;;;-0.73;43.65234;96262.44;;;;
2022/03/23 01:58:28;;;;;;;8.749998;6.900001;;;;;;;-0.73;43.65234;96262.44;;;;
2022/03/23 01:59:29;;;;;;;8.749998;6.900001;;;;;;;-0.73;43.65234;96262.44;;;;
2022/03/23 02:00:30;;;;;;;8.749998;6.900001;;;;;;;-0.73;43.65234;96262.44;;;;
2022/03/23 02:01:30;;;;;;;8.749998;6.900001;;;;;;;-0.73;43.65234;96262.44;;;;
2022/03/23 02:02:31;;;;;;;8.749998;6.900001;;;;;;;-0.73;43.65234;96262.44;;;;
2022/03/23 02:03:32;;;;;;;8.749998;6.900001;;;;;;;-0.73;43.65234;96262.44;;;;
2022/03/23 02:04:33;;;;;;;8.749998;6.900001;;;;;;;-0.73;43.65234;96262.44;;;;
2022/03/23 02:05:33;;;;;;;8.749998;6.900001;;;;;;;-0.73;43.65234;96262.44;;;;
2022/03/23 02:06:34;;;;;;;8.749998;6.900001;;;;;;;-0.73;43.65234;96262.44;;;;
2022/03/23 02:07:35;;;;;;;8.749998;6.900001;;;;;;;-0.73;43.65234;96262.44;;;;
2022/03/23 02:08:35;;;;;;;8.749998;6.900001;;;;;;;-0.73;43.65234;96262.44;;;;
2022/03/23 02:09:36;;;;;;;8.749998;6.900001;;;;;;;-0.73;43.65234;96262.44;;;;
2022/03/23 02:10:37;;;;;;;8.749998;6.900001;;;;;;;-0.73;43.65234;96262.44;;;;
2022/03/23 02:11:38;;;;;;;8.749998;6.900001;;;;;;;-0.73;43.65234;96262.44;;;;
2022/03/23 02:12:38;;;;;;;8.749998;6.900001;;;;;;;-0.73;43.65234;96262.44;;;;
2022/03/23 02:13:39;;;;;;;8.749998;6.900001;;;;;;;-0.73;43.65234;96262.44;;;;
2022/03/23 02:14:39;;;;;;;8.749998;6.900001;;;;;;;-0.73;43.65234;96262.44;;;;
2022/03/23 02:15:40;;;;;;;8.749998;6.900001;;;;;;;-0.73;43.65234;96262.44;;;;
2022/03/23 02:16:40;;;;;;;8.749998;6.900001;;;;;;;-0.73;43.65234;96262.44;;;;
2022/03/23 02:17:42;;;;;;;8.749998;6.900001;;;;;;;-0.73;43.65234;96262.44;;;;
2022/03/23 02:18:43;;;;;;;8.749998;6.900001;;;;;;;-0.73;43.65234;96262.44;;;;
2022/03/23 02:19:44;;;;;;;8.749998;6.900001;;;;;;;-0.73;43.65234;96262.44;;;;
2022/03/23 02:20:44;;;;;;;8.749998;6.900001;;;;;;;-0.73;43.65234;96262.44;;;;
2022/03/23 02:21:45;;;;;;;8.749998;6.900001;;;;;;;-0.73;43.65234;96262.44;;;;
2022/03/23 02:22:46;;;;;;;8.749998;6.900001;;;;;;;-0.73;43.65234;96262.44;;;;
2022/03/23 02:23:47;;;;;;;8.749998;6.900001;;;;;;;-0.73;43.65234;96262.44;;;;
2022/03/23 02:24:48;;;;;;;8.749998;6.900001;;;;;;;-0.73;43.65234;96262.44;;;;
2022/03/23 02:25:49;;;;;;;8.749998;6.900001;;;;;;;-0.73;43.65234;96262.44;;;;
2022/03/23 02:26:58;;;;;;;8.749998;6.900001;;;;;;;-0.73;43.65234;96262.44;;;;
2022/03/23 02:28:00;;;;;;;8.749998;6.900001;;;;;;;-0.73;43.65234;96262.44;;;;
2022/03/23 02:29:01;;;;;;;8.749998;6.900001;;;;;;;-0.73;43.65234;96262.44;;;;
2022/03/23 02:30:01;;;;;;;8.749998;6.900001;;;;;;;-0.73;43.65234;96262.44;;;;
2022/03/23 02:31:04;;;;;;;8.749998;6.900001;;;;;;;-0.73;43.65234;96262.44;;;;
2022/03/23 02:32:05;;;;;;;8.749998;6.900001;;;;;;;-0.73;43.65234;96262.44;;;;
2022/03/23 02:33:06;;;;;;;8.749998;6.900001;;;;;;;-0.73;43.65234;96262.44;;;;
2022/03/23 02:34:07;;;;;;;8.749998;6.900001;;;;;;;-0.73;43.65234;96262.44;;;;
2022/03/23 02:35:08;;;;;;;8.749998;6.900001;;;;;;;-0.73;43.65234;96262.44;;;;
2022/03/23 02:36:09;;;;;;;8.749998;6.900001;;;;;;;-0.73;43.65234;96262.44;;;;
2022/03/23 02:37:09;;;;;;;8.749998;6.900001;;;;;;;-0.73;43.65234;96262.44;;;;
2022/03/23 02:38:10;;;;;;;8.749998;6.900001;;;;;;;-0.73;43.65234;96262.44;;;;
2022/03/23 02:39:11;;;;;;;8.749998;6.900001;;;;;;;-0.73;43.65234;96262.44;;;;
2022/03/23 03:04:23;;;;;;;10.15;7.9;;;;;;;-1.14;46.33008;96267.18;;;;
2022/03/23 03:05:24;;;;;;;10.15;7.9;;;;;;;-1.14;46.33008;96267.18;;;;
2022/03/23 03:06:24;;;;;;;10.15;7.9;;;;;;;-1.14;46.33008;96267.18;;;;
2022/03/23 03:07:25;;;;;;;10.15;7.9;;;;;;;-1.14;46.33008;96267.18;;;;
2022/03/23 03:08:58;;;;;;;10.15;7.9;;;;;;;-1.14;46.33008;96267.18;;;;
2022/03/23 03:09:58;;;;;;;10.15;7.9;;;;;;;-1.14;46.33008;96267.18;;;;
2022/03/23 03:10:59;;;;;;;10.15;7.9;;;;;;;-1.14;46.33008;96267.18;;;;
2022/03/23 03:12:00;;;;;;;10.15;7.9;;;;;;;-1.14;46.33008;96267.18;;;;
2022/03/23 03:13:01;;;;;;;10.15;7.9;;;;;;;-1.14;46.33008;96267.18;;;;
2022/03/23 03:14:02;;;;;;;10.15;7.9;;;;;;;-1.14;46.33008;96267.18;;;;
2022/03/23 03:15:02;;;;;;;10.15;7.9;;;;;;;-1.14;46.33008;96267.18;;;;
2022/03/23 03:16:04;;;;;;;10.15;7.9;;;;;;;-1.14;46.33008;96267.18;;;;
2022/03/23 03:17:05;;;;;;;10.15;7.9;;;;;;;-1.14;46.33008;96267.18;;;;
2022/03/23 03:18:06;;;;;;;10.15;7.9;;;;;;;-1.14;46.33008;96267.18;;;;
2022/03/23 03:19:09;;;;;;;10.15;7.9;;;;;;;-1.14;46.33008;96267.18;;;;
2022/03/23 03:20:09;;;;;;;10.15;7.9;;;;;;;-1.14;46.33008;96267.18;;;;
2022/03/23 03:21:10;;;;;;;9.85;7.749999;;;;;;;-1.3;47.32031;96262.46;;;;
2022/03/23 03:22:11;;;;;;;9.85;7.749999;;;;;;;-1.3;47.32031;96262.46;;;;
2022/03/23 03:23:12;;;;;;;9.85;7.749999;;;;;;;-1.3;47.32031;96262.46;;;;
2022/03/23 03:24:12;;;;;;;9.85;7.749999;;;;;;;-1.3;47.32031;96262.46;;;;
2022/03/23 03:25:12;;;;;;;9.85;7.749999;;;;;;;-1.3;47.32031;96262.46;;;;
2022/03/23 03:26:14;;;;;;;9.85;7.749999;;;;;;;-1.3;47.32031;96262.46;;;;
2022/03/23 03:27:17;;;;;;;9.85;7.749999;;;;;;;-1.3;47.32031;96262.46;;;;
2022/03/23 03:28:17;;;;;;;9.85;7.749999;;;;;;;-1.3;47.32031;96262.46;;;;
2022/03/23 03:29:18;;;;;;;9.85;7.749999;;;;;;;-1.3;47.32031;96262.46;;;;
2022/03/23 03:30:18;;;;;;;9.85;7.749999;;;;;;;-1.3;47.32031;96262.46;;;;
2022/03/23 03:31:19;;;;;;;9.699999;8.000002;;;;;;;-1.41;47.67578;96280.24;;;;
2022/03/23 03:32:20;;;;;;;9.699999;8.000002;;;;;;;-1.41;47.67578;96280.24;;;;
2022/03/23 03:33:20;;;;;;;9.699999;8.000002;;;;;;;-1.41;47.67578;96280.24;;;;
2022/03/23 03:34:21;;;;;;;9.699999;8.000002;;;;;;;-1.41;47.67578;96280.24;;;;
2022/03/23 03:35:23;;;;;;;9.699999;8.000002;;;;;;;-1.41;47.67578;96280.24;;;;
2022/03/23 03:36:24;;;;;;;9.699999;8.000002;;;;;;;-1.41;47.67578;96280.24;;;;
2022/03/23 03:37:25;;;;;;;9.699999;8.000002;;;;;;;-1.41;47.67578;96280.24;;;;
2022/03/23 03:38:25;;;;;;;9.699999;8.000002;;;;;;;-1.41;47.67578;96280.24;;;;
2022/03/23 03:39:26;;;;;;;9.699999;8.000002;;;;;;;-1.41;47.67578;96280.24;;;;
2022/03/23 03:40:26;;;;;;;9.699999;8.000002;;;;;;;-1.41;47.67578;96280.24;;;;
2022/03/23 03:41:27;;;;;;;9.699999;8.000002;;;;;;;-1.41;47.67578;96280.24;;;;
2022/03/23 03:42:27;;;;;;;11.55;8.050001;;;;;;;-1.52;48.04004;96281.27;;;;
2022/03/23 03:43:28;;;;;;;11.55;8.050001;;;;;;;-1.52;48.04004;96281.27;;;;
2022/03/23 03:44:29;;;;;;;11.55;8.050001;;;;;;;-1.52;48.04004;96281.27;;;;
2022/03/23 03:45:29;;;;;;;11.55;8.050001;;;;;;;-1.52;48.04004;96281.27;;;;
2022/03/23 03:46:30;;;;;;;11.55;8.050001;;;;;;;-1.52;48.04004;96281.27;;;;
2022/03/23 03:47:30;;;;;;;11.55;8.050001;;;;;;;-1.52;48.04004;96281.27;;;;
2022/03/23 03:48:31;;;;;;;11.55;8.050001;;;;;;;-1.52;48.04004;96281.27;;;;
2022/03/23 03:49:31;;;;;;;11.55;8.050001;;;;;;;-1.52;48.04004;96281.27;;;;
2022/03/23 03:50:32;;;;;;;11.55;8.050001;;;;;;;-1.52;48.04004;96281.27;;;;
2022/03/23 03:51:34;;;;;;;11.55;8.050001;;;;;;;-1.52;48.04004;96281.27;;;;
2022/03/23 03:52:35;;;;;;;10.5;8.4;;;;;;;-1.58;48.41113;96286.19;;;;
2022/03/23 03:53:35;;;;;;;10.5;8.4;;;;;;;-1.58;48.41113;96286.19;;;;
2022/03/23 03:54:36;;;;;;;10.5;8.4;;;;;;;-1.58;48.41113;96286.19;;;;
2022/03/23 03:55:36;;;;;;;10.5;8.4;;;;;;;-1.58;48.41113;96286.19;;;;
2022/03/23 03:56:38;;;;;;;10.5;8.4;;;;;;;-1.58;48.41113;96286.19;;;;
2022/03/23 03:57:38;;;;;;;10.5;8.4;;;;;;;-1.58;48.41113;96286.19;;;;
2022/03/23 03:58:39;;;;;;;10.5;8.4;;;;;;;-1.58;48.41113;96286.19;;;;
2022/03/23 03:59:40;;;;;;;10.5;8.4;;;;;;;-1.58;48.41113;96286.19;;;;
2022/03/23 04:00:40;;;;;;;10.5;8.4;;;;;;;-1.58;48.41113;96286.19;;;;
2022/03/23 04:01:41;;;;;;;10.5;8.4;;;;;;;-1.58;48.41113;96286.19;;;;
2022/03/23 04:02:42;;;;;;;10.5;8.4;;;;;;;-1.58;48.41113;96286.19;;;;
2022/03/23 04:03:42;;;;;;;11.75;9.050001;;;;;;;-1.6;48.7959;96278.45;;;;
2022/03/23 04:04:43;;;;;;;11.75;9.050001;;;;;;;-1.6;48.7959;96278.45;;;;
2022/03/23 04:05:44;;;;;;;11.75;9.050001;;;;;;;-1.6;48.7959;96278.45;;;;
2022/03/23 04:06:44;;;;;;;11.75;9.050001;;;;;;;-1.6;48.7959;96278.45;;;;
2022/03/23 04:07:45;;;;;;;11.75;9.050001;;;;;;;-1.6;48.7959;96278.45;;;;
2022/03/23 04:08:45;;;;;;;11.75;9.050001;;;;;;;-1.6;48.7959;96278.45;;;;
2022/03/23 04:09:46;;;;;;;11.75;9.050001;;;;;;;-1.6;48.7959;96278.45;;;;
2022/03/23 04:10:46;;;;;;;11.75;9.050001;;;;;;;-1.6;48.7959;96278.45;;;;
2022/03/23 04:11:47;;;;;;;11.75;9.050001;;;;;;;-1.6;48.7959;96278.45;;;;
2022/03/23 04:12:47;;;;;;;11.75;9.050001;;;;;;;-1.6;48.7959;96278.45;;;;
2022/03/23 04:13:48;;;;;;;13;9.4;;;;;;;-1.6;49.19434;96281.52;;;;
2022/03/23 04:14:49;;;;;;;13;9.4;;;;;;;-1.6;49.19434;96281.52;;;;
2022/03/23 04:15:50;;;;;;;13;9.4;;;;;;;-1.6;49.19434;96281.52;;;;
2022/03/23 04:16:50;;;;;;;13;9.4;;;;;;;-1.6;49.19434;96281.52;;;;
2022/03/23 04:17:51;;;;;;;13;9.4;;;;;;;-1.6;49.19434;96281.52;;;;
2022/03/23 04:18:52;;;;;;;13;9.4;;;;;;;-1.6;49.19434;96281.52;;;;
2022/03/23 04:19:53;;;;;;;13;9.4;;;;;;;-1.6;49.19434;96281.52;;;;
2022/03/23 04:20:53;;;;;;;13;9.4;;;;;;;-1.6;49.19434;96281.52;;;;
2022/03/23 04:21:54;;;;;;;13;9.4;;;;;;;-1.6;49.19434;96281.52;;;;
2022/03/23 04:22:55;;;;;;;13;9.4;;;;;;;-1.6;49.19434;96281.52;;;;
2022/03/23 04:23:55;;;;;;;13;9.4;;;;;;;-1.6;49.19434;96281.52;;;;
2022/03/23 04:24:56;;;;;;;12.1;9.050001;;;;;;;-1.62;49.60059;96288.76;;;;
2022/03/23 04:25:56;;;;;;;12.1;9.050001;;;;;;;-1.62;49.60059;96288.76;;;;
2022/03/23 04:26:57;;;;;;;12.1;9.050001;;;;;;;-1.62;49.60059;96288.76;;;;
2022/03/23 04:27:57;;;;;;;12.1;9.050001;;;;;;;-1.62;49.60059;96288.76;;;;
2022/03/23 04:28:58;;;;;;;12.1;9.050001;;;;;;;-1.62;49.60059;96288.76;;;;
2022/03/23 04:29:59;;;;;;;12.1;9.050001;;;;;;;-1.62;49.60059;96288.76;;;;
2022/03/23 04:31:00;;;;;;;12.1;9.050001;;;;;;;-1.62;49.60059;96288.76;;;;
2022/03/23 04:32:00;;;;;;;12.1;9.050001;;;;;;;-1.62;49.60059;96288.76;;;;
2022/03/23 04:33:01;;;;;;;12.1;9.050001;;;;;;;-1.62;49.60059;96288.76;;;;
2022/03/23 04:34:02;;;;;;;12.1;9.050001;;;;;;;-1.62;49.60059;96288.76;;;;
2022/03/23 04:35:02;;;;;;;11.65;8.999999;;;;;;;-1.63;49.92383;96302.14;;;;
2022/03/23 04:36:03;;;;;;;11.65;8.999999;;;;;;;-1.63;49.92383;96302.14;;;;
2022/03/23 04:37:04;;;;;;;11.65;8.999999;;;;;;;-1.63;49.92383;96302.14;;;;
2022/03/23 04:38:05;;;;;;;11.65;8.999999;;;;;;;-1.63;49.92383;96302.14;;;;
2022/03/23 04:39:06;;;;;;;11.65;8.999999;;;;;;;-1.63;49.92383;96302.14;;;;
2022/03/23 04:40:07;;;;;;;11.65;8.999999;;;;;;;-1.63;49.92383;96302.14;;;;
2022/03/23 04:41:09;;;;;;;11.65;8.999999;;;;;;;-1.63;49.92383;96302.14;;;;
2022/03/23 04:42:10;;;;;;;11.65;8.999999;;;;;;;-1.63;49.92383;96302.14;;;;
2022/03/23 04:43:10;;;;;;;11.65;8.999999;;;;;;;-1.63;49.92383;96302.14;;;;
2022/03/23 04:44:11;;;;;;;11.65;8.999999;;;;;;;-1.63;49.92383;96302.14;;;;
2022/03/23 04:45:12;;;;;;;11.65;8.999999;;;;;;;-1.63;49.92383;96302.14;;;;
2022/03/23 04:46:13;;;;;;;11.65;8.999999;;;;;;;-1.63;49.92383;96302.14;;;;
2022/03/23 04:47:14;;;;;;;11.65;8.999999;;;;;;;-1.63;49.92383;96302.14;;;;
2022/03/23 04:48:14;;;;;;;11.65;8.999999;;;;;;;-1.63;49.92383;96302.14;;;;
2022/03/23 04:49:15;;;;;;;11.65;8.999999;;;;;;;-1.63;49.92383;96302.14;;;;
2022/03/23 04:50:16;;;;;;;11.65;8.999999;;;;;;;-1.63;49.92383;96302.14;;;;
2022/03/23 04:51:17;;;;;;;11.65;8.999999;;;;;;;-1.63;49.92383;96302.14;;;;
2022/03/23 04:52:18;;;;;;;11.65;8.999999;;;;;;;-1.63;49.92383;96302.14;;;;
2022/03/23 04:53:18;;;;;;;11.65;8.999999;;;;;;;-1.63;49.92383;96302.14;;;;
2022/03/23 04:54:19;;;;;;;11.65;8.999999;;;;;;;-1.63;49.92383;96302.14;;;;
2022/03/23 04:55:20;;;;;;;11.65;8.999999;;;;;;;-1.63;49.92383;96302.14;;;;
2022/03/23 04:56:20;;;;;;;11.65;8.999999;;;;;;;-1.63;49.92383;96302.14;;;;
2022/03/23 04:57:22;;;;;;;11.2;6.95;;;;;;;-1.55;49.42969;96315.97;;;;
2022/03/23 04:58:24;;;;;;;11.2;6.95;;;;;;;-1.55;49.42969;96315.97;;;;
2022/03/23 04:59:27;;;;;;;11.2;6.95;;;;;;;-1.55;49.42969;96315.97;;;;
2022/03/23 05:00:28;;;;;;;11.2;6.95;;;;;;;-1.55;49.42969;96315.97;;;;
2022/03/23 05:01:28;;;;;;;11.2;6.95;;;;;;;-1.55;49.42969;96315.97;;;;
2022/03/23 05:02:29;;;;;;;11.2;6.95;;;;;;;-1.55;49.42969;96315.97;;;;
2022/03/23 05:03:29;;;;;;;11.2;6.95;;;;;;;-1.55;49.42969;96315.97;;;;
2022/03/23 05:04:30;;;;;;;11.2;6.95;;;;;;;-1.55;49.42969;96315.97;;;;
2022/03/23 05:05:31;;;;;;;11.2;6.95;;;;;;;-1.55;49.42969;96315.97;;;;
2022/03/23 05:06:31;;;;;;;11.2;6.95;;;;;;;-1.55;49.42969;96315.97;;;;
2022/03/23 05:07:32;;;;;;;11.2;6.95;;;;;;;-1.55;49.42969;96315.97;;;;
2022/03/23 05:08:32;;;;;;;11.2;6.95;;;;;;;-1.55;49.42969;96315.97;;;;
2022/03/23 05:09:33;;;;;;;11.2;6.95;;;;;;;-1.55;49.42969;96315.97;;;;
2022/03/23 05:10:33;;;;;;;11.2;6.95;;;;;;;-1.55;49.42969;96315.97;;;;
2022/03/23 05:11:34;;;;;;;11.2;6.95;;;;;;;-1.55;49.42969;96315.97;;;;
2022/03/23 05:12:34;;;;;;;11.2;6.95;;;;;;;-1.55;49.42969;96315.97;;;;
2022/03/23 05:13:35;;;;;;;11.2;6.95;;;;;;;-1.55;49.42969;96315.97;;;;
2022/03/23 05:14:36;;;;;;;11.2;6.95;;;;;;;-1.55;49.42969;96315.97;;;;
2022/03/23 05:15:37;;;;;;;11.2;6.95;;;;;;;-1.55;49.42969;96315.97;;;;
2022/03/23 05:16:37;;;;;;;11.2;6.95;;;;;;;-1.55;49.42969;96315.97;;;;
2022/03/23 05:17:38;;;;;;;11.2;6.95;;;;;;;-1.55;49.42969;96315.97;;;;
2022/03/23 05:18:38;;;;;;;10.9;7.25;;;;;;;-1.53;49.48438;96326.42;;;;
2022/03/23 05:19:40;;;;;;;10.9;7.25;;;;;;;-1.53;49.48438;96326.42;;;;
2022/03/23 05:20:41;;;;;;;10.9;7.25;;;;;;;-1.53;49.48438;96326.42;;;;
2022/03/23 05:21:42;;;;;;;10.9;7.25;;;;;;;-1.53;49.48438;96326.42;;;;
2022/03/23 05:22:42;;;;;;;10.9;7.25;;;;;;;-1.53;49.48438;96326.42;;;;
2022/03/23 05:23:43;;;;;;;10.9;7.25;;;;;;;-1.53;49.48438;96326.42;;;;
2022/03/23 05:24:44;;;;;;;10.9;7.25;;;;;;;-1.53;49.48438;96326.42;;;;
2022/03/23 05:25:44;;;;;;;10.9;7.25;;;;;;;-1.53;49.48438;96326.42;;;;
2022/03/23 05:26:45;;;;;;;10.9;7.25;;;;;;;-1.53;49.48438;96326.42;;;;
2022/03/23 05:27:45;;;;;;;10.9;7.25;;;;;;;-1.53;49.48438;96326.42;;;;
2022/03/23 05:28:46;;;;;;;14.85;9.8;;;;;;;-1.58;49.05078;96333.84;;;;
2022/03/23 05:29:46;;;;;;;14.85;9.8;;;;;;;-1.58;49.05078;96333.84;;;;
2022/03/23 05:30:47;;;;;;;14.85;9.8;;;;;;;-1.58;49.05078;96333.84;;;;
2022/03/23 05:31:48;;;;;;;14.85;9.8;;;;;;;-1.58;49.05078;96333.84;;;;
2022/03/23 05:32:48;;;;;;;14.85;9.8;;;;;;;-1.58;49.05078;96333.84;;;;
2022/03/23 05:33:49;;;;;;;14.85;9.8;;;;;;;-1.58;49.05078;96333.84;;;;
2022/03/23 05:34:50;;;;;;;14.85;9.8;;;;;;;-1.58;49.05078;96333.84;;;;
2022/03/23 05:35:51;;;;;;;14.85;9.8;;;;;;;-1.58;49.05078;96333.84;;;;
2022/03/23 05:36:51;;;;;;;14.85;9.8;;;;;;;-1.58;49.05078;96333.84;;;;
2022/03/23 05:37:52;;;;;;;14.85;9.8;;;;;;;-1.58;49.05078;96333.84;;;;
2022/03/23 05:38:52;;;;;;;14.85;9.8;;;;;;;-1.58;49.05078;96333.84;;;;
2022/03/23 05:39:53;;;;;;;11.6;7.099999;;;;;;;-1.54;49.81836;96336.64;;;;
2022/03/23 05:40:54;;;;;;;11.6;7.099999;;;;;;;-1.54;49.81836;96336.64;;;;
2022/03/23 05:41:54;;;;;;;11.6;7.099999;;;;;;;-1.54;49.81836;96336.64;;;;
2022/03/23 05:42:54;;;;;;;11.6;7.099999;;;;;;;-1.54;49.81836;96336.64;;;;
2022/03/23 05:43:55;;;;;;;11.6;7.099999;;;;;;;-1.54;49.81836;96336.64;;;;
2022/03/23 05:44:56;;;;;;;11.6;7.099999;;;;;;;-1.54;49.81836;96336.64;;;;
2022/03/23 05:45:56;;;;;;;11.6;7.099999;;;;;;;-1.54;49.81836;96336.64;;;;
2022/03/23 05:46:57;;;;;;;11.6;7.099999;;;;;;;-1.54;49.81836;96336.64;;;;
2022/03/23 05:47:57;;;;;;;11.6;7.099999;;;;;;;-1.54;49.81836;96336.64;;;;
2022/03/23 05:48:58;;;;;;;11.6;7.099999;;;;;;;-1.54;49.81836;96336.64;;;;
2022/03/23 05:49:58;;;;;;;15.1;9.549999;;;;;;;-1.45;49.24316;96340.63;;;;
2022/03/23 05:50:59;;;;;;;15.1;9.549999;;;;;;;-1.45;49.24316;96340.63;;;;
2022/03/23 05:52:00;;;;;;;15.1;9.549999;;;;;;;-1.45;49.24316;96340.63;;;;
2022/03/23 05:53:00;;;;;;;15.1;9.549999;;;;;;;-1.45;49.24316;96340.63;;;;
2022/03/23 05:54:01;;;;;;;15.1;9.549999;;;;;;;-1.45;49.24316;96340.63;;;;
2022/03/23 05:55:02;;;;;;;15.1;9.549999;;;;;;;-1.45;49.24316;96340.63;;;;
2022/03/23 05:56:04;;;;;;;15.1;9.549999;;;;;;;-1.45;49.24316;96340.63;;;;